sensor_id;sensor_type;location;lat;lon;timestamp;P1;durP1;ratioP1;P2;durP2;ratioP2
51485;SDS011;37565;51.352;6.412;2023-02-17T00:01:09;7.57;;;3.17;;
51485;SDS011;37565;51.352;6.412;2023-02-17T00:03:37;3.38;;;2.65;;
51485;SDS011;37565;51.352;6.412;2023-02-17T00:06:06;4.20;;;3.03;;
51485;SDS011;37565;51.352;6.412;2023-02-17T00:08:34;8.00;;;2.92;;
51485;SDS011;37565;51.352;6.412;2023-02-17T00:11:03;4.25;;;3.10;;
51485;SDS011;37565;51.352;6.412;2023-02-17T00:13:31;3.20;;;2.83;;
51485;SDS011;37565;51.352;6.412;2023-02-17T00:16:04;5.60;;;3.00;;
51485;SDS011;37565;51.352;6.412;2023-02-17T00:18:35;4.82;;;3.33;;
51485;SDS011;37565;51.352;6.412;2023-02-17T00:21:10;5.32;;;3.67;;
51485;SDS011;37565;51.352;6.412;2023-02-17T00:23:40;3.33;;;3.03;;
51485;SDS011;37565;51.352;6.412;2023-02-17T00:26:08;2.95;;;2.65;;
51485;SDS011;37565;51.352;6.412;2023-02-17T00:28:36;7.05;;;3.35;;
51485;SDS011;37565;51.352;6.412;2023-02-17T00:31:04;6.13;;;2.78;;
51485;SDS011;37565;51.352;6.412;2023-02-17T00:33:33;4.38;;;2.78;;
51485;SDS011;37565;51.352;6.412;2023-02-17T00:36:03;6.00;;;2.67;;
51485;SDS011;37565;51.352;6.412;2023-02-17T00:38:33;5.93;;;3.00;;
51485;SDS011;37565;51.352;6.412;2023-02-17T00:41:01;4.88;;;2.75;;
51485;SDS011;37565;51.352;6.412;2023-02-17T00:43:29;3.90;;;2.58;;
51485;SDS011;37565;51.352;6.412;2023-02-17T00:45:57;7.10;;;2.65;;
51485;SDS011;37565;51.352;6.412;2023-02-17T00:48:25;4.13;;;2.90;;
51485;SDS011;37565;51.352;6.412;2023-02-17T00:50:54;5.50;;;2.97;;
51485;SDS011;37565;51.352;6.412;2023-02-17T00:53:22;4.22;;;3.33;;
51485;SDS011;37565;51.352;6.412;2023-02-17T00:55:50;4.57;;;3.10;;
51485;SDS011;37565;51.352;6.412;2023-02-17T16:50:53;4.43;;;1.77;;
51485;SDS011;37565;51.352;6.412;2023-02-17T16:53:21;3.97;;;1.73;;
51485;SDS011;37565;51.352;6.412;2023-02-17T16:55:49;4.57;;;1.77;;
51485;SDS011;37565;51.352;6.412;2023-02-17T16:58:21;4.68;;;1.77;;
51485;SDS011;37565;51.352;6.412;2023-02-17T17:00:50;3.53;;;1.88;;
51485;SDS011;37565;51.352;6.412;2023-02-17T17:03:20;3.53;;;1.33;;
51485;SDS011;37565;51.352;6.412;2023-02-17T17:05:48;5.72;;;1.48;;
51485;SDS011;37565;51.352;6.412;2023-02-17T17:08:18;4.35;;;1.55;;
51485;SDS011;37565;51.352;6.412;2023-02-17T17:10:47;3.88;;;1.27;;
51485;SDS011;37565;51.352;6.412;2023-02-17T17:13:15;4.55;;;1.40;;
51485;SDS011;37565;51.352;6.412;2023-02-17T17:15:43;6.18;;;1.60;;
51485;SDS011;37565;51.352;6.412;2023-02-17T17:18:14;4.88;;;1.20;;
51485;SDS011;37565;51.352;6.412;2023-02-17T17:20:45;3.67;;;1.58;;
51485;SDS011;37565;51.352;6.412;2023-02-17T17:23:14;6.22;;;1.50;;
51485;SDS011;37565;51.352;6.412;2023-02-17T17:25:45;5.05;;;1.33;;
51485;SDS011;37565;51.352;6.412;2023-02-17T17:28:14;3.42;;;1.00;;
51485;SDS011;37565;51.352;6.412;2023-02-17T17:30:43;6.78;;;1.13;;
51485;SDS011;37565;51.352;6.412;2023-02-17T17:33:12;1.48;;;1.00;;
51485;SDS011;37565;51.352;6.412;2023-02-17T17:35:40;6.32;;;1.70;;
51485;SDS011;37565;51.352;6.412;2023-02-17T17:38:08;1.75;;;1.05;;
51485;SDS011;37565;51.352;6.412;2023-02-17T17:40:40;3.35;;;1.27;;
51485;SDS011;37565;51.352;6.412;2023-02-17T17:43:16;3.05;;;1.10;;
51485;SDS011;37565;51.352;6.412;2023-02-17T17:45:45;4.97;;;1.30;;
51485;SDS011;37565;51.352;6.412;2023-02-17T17:48:14;1.55;;;0.90;;
51485;SDS011;37565;51.352;6.412;2023-02-17T17:50:43;1.67;;;0.90;;
51485;SDS011;37565;51.352;6.412;2023-02-17T17:53:11;1.85;;;1.00;;
51485;SDS011;37565;51.352;6.412;2023-02-17T17:55:39;3.70;;;1.10;;
51485;SDS011;37565;51.352;6.412;2023-02-17T17:58:07;3.85;;;0.80;;
51485;SDS011;37565;51.352;6.412;2023-02-17T18:00:36;2.63;;;1.00;;
51485;SDS011;37565;51.352;6.412;2023-02-17T18:03:04;3.63;;;0.88;;
51485;SDS011;37565;51.352;6.412;2023-02-17T18:05:32;2.97;;;1.42;;
51485;SDS011;37565;51.352;6.412;2023-02-17T18:08:01;12.40;;;1.23;;
51485;SDS011;37565;51.352;6.412;2023-02-17T18:10:29;5.55;;;0.80;;
51485;SDS011;37565;51.352;6.412;2023-02-17T18:12:57;3.83;;;1.10;;
51485;SDS011;37565;51.352;6.412;2023-02-17T18:15:25;2.88;;;0.85;;
51485;SDS011;37565;51.352;6.412;2023-02-17T18:17:55;2.42;;;1.48;;
51485;SDS011;37565;51.352;6.412;2023-02-17T18:20:23;4.75;;;1.25;;
51485;SDS011;37565;51.352;6.412;2023-02-17T18:22:51;2.42;;;0.98;;
51485;SDS011;37565;51.352;6.412;2023-02-17T18:25:19;2.70;;;0.80;;
51485;SDS011;37565;51.352;6.412;2023-02-17T18:27:47;9.30;;;1.05;;
51485;SDS011;37565;51.352;6.412;2023-02-17T18:30:16;3.67;;;0.90;;
51485;SDS011;37565;51.352;6.412;2023-02-17T18:32:45;1.33;;;0.80;;
51485;SDS011;37565;51.352;6.412;2023-02-17T18:35:15;6.18;;;1.00;;
51485;SDS011;37565;51.352;6.412;2023-02-17T18:37:43;6.13;;;0.80;;
51485;SDS011;37565;51.352;6.412;2023-02-17T18:40:12;1.02;;;0.80;;
51485;SDS011;37565;51.352;6.412;2023-02-17T18:42:42;5.03;;;0.82;;
51485;SDS011;37565;51.352;6.412;2023-02-17T18:45:11;6.97;;;0.90;;
51485;SDS011;37565;51.352;6.412;2023-02-17T18:47:40;1.50;;;0.90;;
51485;SDS011;37565;51.352;6.412;2023-02-17T18:50:09;4.47;;;0.90;;
51485;SDS011;37565;51.352;6.412;2023-02-17T18:52:40;3.30;;;1.00;;
51485;SDS011;37565;51.352;6.412;2023-02-17T18:55:08;1.83;;;0.90;;
51485;SDS011;37565;51.352;6.412;2023-02-17T18:57:37;1.20;;;0.90;;
51485;SDS011;37565;51.352;6.412;2023-02-17T19:00:06;3.35;;;0.68;;
51485;SDS011;37565;51.352;6.412;2023-02-17T19:02:36;3.22;;;0.95;;
51485;SDS011;37565;51.352;6.412;2023-02-17T19:05:04;4.47;;;1.50;;
51485;SDS011;37565;51.352;6.412;2023-02-17T19:07:33;1.58;;;1.20;;
51485;SDS011;37565;51.352;6.412;2023-02-17T19:10:02;2.28;;;1.10;;
51485;SDS011;37565;51.352;6.412;2023-02-17T19:12:31;3.15;;;0.90;;
51485;SDS011;37565;51.352;6.412;2023-02-17T19:14:59;1.33;;;1.02;;
51485;SDS011;37565;51.352;6.412;2023-02-17T19:17:27;1.05;;;0.90;;
51485;SDS011;37565;51.352;6.412;2023-02-17T19:19:55;4.68;;;0.85;;
51485;SDS011;37565;51.352;6.412;2023-02-17T19:22:23;3.10;;;1.00;;
51485;SDS011;37565;51.352;6.412;2023-02-17T19:24:52;2.95;;;0.90;;
51485;SDS011;37565;51.352;6.412;2023-02-17T19:27:21;4.63;;;1.00;;
51485;SDS011;37565;51.352;6.412;2023-02-17T19:29:49;3.35;;;0.73;;
51485;SDS011;37565;51.352;6.412;2023-02-17T19:32:17;3.67;;;1.00;;
51485;SDS011;37565;51.352;6.412;2023-02-17T19:34:45;1.00;;;0.60;;
51485;SDS011;37565;51.352;6.412;2023-02-17T19:37:13;3.08;;;0.52;;
51485;SDS011;37565;51.352;6.412;2023-02-17T19:39:41;6.85;;;1.02;;
51485;SDS011;37565;51.352;6.412;2023-02-17T19:42:10;1.40;;;0.75;;
51485;SDS011;37565;51.352;6.412;2023-02-17T19:44:39;0.65;;;0.65;;
51485;SDS011;37565;51.352;6.412;2023-02-17T19:47:07;1.80;;;0.85;;
51485;SDS011;37565;51.352;6.412;2023-02-17T19:49:35;1.30;;;0.70;;
51485;SDS011;37565;51.352;6.412;2023-02-17T19:52:03;0.77;;;0.60;;
51485;SDS011;37565;51.352;6.412;2023-02-17T19:54:32;0.80;;;0.80;;
51485;SDS011;37565;51.352;6.412;2023-02-17T19:57:00;1.02;;;0.55;;
51485;SDS011;37565;51.352;6.412;2023-02-17T19:59:30;0.50;;;0.50;;
51485;SDS011;37565;51.352;6.412;2023-02-17T20:01:59;1.25;;;0.50;;
51485;SDS011;37565;51.352;6.412;2023-02-17T20:04:28;1.25;;;0.60;;
51485;SDS011;37565;51.352;6.412;2023-02-17T20:06:56;2.85;;;0.60;;
51485;SDS011;37565;51.352;6.412;2023-02-17T20:09:24;0.85;;;0.50;;
51485;SDS011;37565;51.352;6.412;2023-02-17T20:11:52;0.60;;;0.60;;
51485;SDS011;37565;51.352;6.412;2023-02-17T20:14:20;2.10;;;0.50;;
51485;SDS011;37565;51.352;6.412;2023-02-17T20:16:48;0.40;;;0.40;;
51485;SDS011;37565;51.352;6.412;2023-02-17T20:19:19;2.70;;;0.73;;
51485;SDS011;37565;51.352;6.412;2023-02-17T20:21:47;0.70;;;0.43;;
51485;SDS011;37565;51.352;6.412;2023-02-17T20:24:15;1.33;;;0.63;;
51485;SDS011;37565;51.352;6.412;2023-02-17T20:26:44;3.80;;;0.70;;
51485;SDS011;37565;51.352;6.412;2023-02-17T20:29:13;3.08;;;0.82;;
51485;SDS011;37565;51.352;6.412;2023-02-17T20:31:41;2.35;;;0.60;;
51485;SDS011;37565;51.352;6.412;2023-02-17T20:34:16;2.53;;;0.57;;
51485;SDS011;37565;51.352;6.412;2023-02-17T20:36:52;1.02;;;0.47;;
51485;SDS011;37565;51.352;6.412;2023-02-17T20:39:20;3.55;;;0.80;;
51485;SDS011;37565;51.352;6.412;2023-02-17T20:41:48;4.50;;;0.50;;
51485;SDS011;37565;51.352;6.412;2023-02-17T20:44:16;3.22;;;0.65;;
51485;SDS011;37565;51.352;6.412;2023-02-17T20:46:44;2.50;;;0.40;;
51485;SDS011;37565;51.352;6.412;2023-02-17T20:49:13;1.23;;;0.50;;
51485;SDS011;37565;51.352;6.412;2023-02-17T20:51:42;1.80;;;0.52;;
51485;SDS011;37565;51.352;6.412;2023-02-17T20:54:11;1.65;;;0.47;;
51485;SDS011;37565;51.352;6.412;2023-02-17T20:56:39;2.00;;;0.47;;
51485;SDS011;37565;51.352;6.412;2023-02-17T20:59:09;3.03;;;0.45;;
51485;SDS011;37565;51.352;6.412;2023-02-17T21:01:38;1.48;;;0.40;;
51485;SDS011;37565;51.352;6.412;2023-02-17T21:04:06;3.17;;;0.50;;
51485;SDS011;37565;51.352;6.412;2023-02-17T21:06:35;1.95;;;0.40;;
51485;SDS011;37565;51.352;6.412;2023-02-17T21:09:06;0.50;;;0.50;;
51485;SDS011;37565;51.352;6.412;2023-02-17T21:11:38;0.40;;;0.40;;
51485;SDS011;37565;51.352;6.412;2023-02-17T21:14:06;0.63;;;0.50;;
51485;SDS011;37565;51.352;6.412;2023-02-17T21:16:34;0.70;;;0.50;;
51485;SDS011;37565;51.352;6.412;2023-02-17T21:19:02;2.45;;;0.57;;
51485;SDS011;37565;51.352;6.412;2023-02-17T21:21:30;3.53;;;0.50;;
51485;SDS011;37565;51.352;6.412;2023-02-17T21:23:58;0.95;;;0.50;;
51485;SDS011;37565;51.352;6.412;2023-02-17T21:26:28;3.33;;;0.55;;
51485;SDS011;37565;51.352;6.412;2023-02-17T21:28:56;0.70;;;0.50;;
51485;SDS011;37565;51.352;6.412;2023-02-17T21:31:24;0.70;;;0.50;;
51485;SDS011;37565;51.352;6.412;2023-02-17T21:33:52;3.85;;;0.25;;
51485;SDS011;37565;51.352;6.412;2023-02-17T21:36:20;3.92;;;0.40;;
51485;SDS011;37565;51.352;6.412;2023-02-17T21:38:48;2.92;;;0.32;;
51485;SDS011;37565;51.352;6.412;2023-02-17T21:41:17;0.63;;;0.50;;
51485;SDS011;37565;51.352;6.412;2023-02-17T21:43:47;1.33;;;0.50;;
51485;SDS011;37565;51.352;6.412;2023-02-17T21:46:33;0.40;;;0.40;;
51485;SDS011;37565;51.352;6.412;2023-02-17T21:49:02;2.17;;;0.65;;
51485;SDS011;37565;51.352;6.412;2023-02-17T21:51:30;2.60;;;0.40;;
51485;SDS011;37565;51.352;6.412;2023-02-17T21:53:58;0.40;;;0.30;;
51485;SDS011;37565;51.352;6.412;2023-02-17T21:56:26;3.78;;;0.40;;
51485;SDS011;37565;51.352;6.412;2023-02-17T21:58:55;0.60;;;0.50;;
51485;SDS011;37565;51.352;6.412;2023-02-17T22:01:24;3.75;;;0.60;;
51485;SDS011;37565;51.352;6.412;2023-02-17T22:03:53;4.57;;;0.88;;
51485;SDS011;37565;51.352;6.412;2023-02-17T22:06:23;5.53;;;0.50;;
51485;SDS011;37565;51.352;6.412;2023-02-17T22:08:52;0.60;;;0.60;;
51485;SDS011;37565;51.352;6.412;2023-02-17T22:11:21;2.15;;;0.50;;
51485;SDS011;37565;51.352;6.412;2023-02-17T22:13:52;0.63;;;0.50;;
51485;SDS011;37565;51.352;6.412;2023-02-17T22:16:22;0.35;;;0.35;;
51485;SDS011;37565;51.352;6.412;2023-02-17T22:18:50;0.73;;;0.55;;
51485;SDS011;37565;51.352;6.412;2023-02-17T22:21:18;1.17;;;0.47;;
51485;SDS011;37565;51.352;6.412;2023-02-17T22:23:46;0.52;;;0.50;;
51485;SDS011;37565;51.352;6.412;2023-02-17T22:26:15;2.03;;;0.60;;
51485;SDS011;37565;51.352;6.412;2023-02-17T22:28:44;0.50;;;0.50;;
51485;SDS011;37565;51.352;6.412;2023-02-17T22:31:13;4.32;;;0.50;;
51485;SDS011;37565;51.352;6.412;2023-02-17T22:33:44;0.77;;;0.55;;
51485;SDS011;37565;51.352;6.412;2023-02-17T22:36:13;0.73;;;0.60;;
51485;SDS011;37565;51.352;6.412;2023-02-17T22:38:42;0.52;;;0.52;;
51485;SDS011;37565;51.352;6.412;2023-02-17T22:41:11;2.38;;;0.57;;
51485;SDS011;37565;51.352;6.412;2023-02-17T22:43:46;1.60;;;0.70;;
51485;SDS011;37565;51.352;6.412;2023-02-17T22:46:15;9.98;;;0.80;;
51485;SDS011;37565;51.352;6.412;2023-02-17T22:48:47;0.55;;;0.45;;
51485;SDS011;37565;51.352;6.412;2023-02-17T22:51:17;0.88;;;0.73;;
51485;SDS011;37565;51.352;6.412;2023-02-17T22:53:48;1.13;;;0.65;;
51485;SDS011;37565;51.352;6.412;2023-02-17T22:56:16;0.65;;;0.60;;
51485;SDS011;37565;51.352;6.412;2023-02-17T22:58:44;6.82;;;0.75;;
51485;SDS011;37565;51.352;6.412;2023-02-17T23:01:13;1.55;;;0.70;;
51485;SDS011;37565;51.352;6.412;2023-02-17T23:03:42;2.85;;;0.47;;
51485;SDS011;37565;51.352;6.412;2023-02-17T23:06:14;5.47;;;1.13;;
51485;SDS011;37565;51.352;6.412;2023-02-17T23:08:44;2.78;;;0.70;;
51485;SDS011;37565;51.352;6.412;2023-02-17T23:11:14;5.38;;;0.70;;
51485;SDS011;37565;51.352;6.412;2023-02-17T23:13:43;0.60;;;0.60;;
51485;SDS011;37565;51.352;6.412;2023-02-17T23:16:16;4.28;;;0.98;;
51485;SDS011;37565;51.352;6.412;2023-02-17T23:18:46;0.65;;;0.65;;
51485;SDS011;37565;51.352;6.412;2023-02-17T23:21:15;4.70;;;1.13;;
51485;SDS011;37565;51.352;6.412;2023-02-17T23:23:43;1.67;;;0.70;;
51485;SDS011;37565;51.352;6.412;2023-02-17T23:26:12;0.50;;;0.50;;
51485;SDS011;37565;51.352;6.412;2023-02-17T23:28:40;1.25;;;0.80;;
51485;SDS011;37565;51.352;6.412;2023-02-17T23:31:09;2.95;;;0.57;;
51485;SDS011;37565;51.352;6.412;2023-02-17T23:33:37;0.52;;;0.52;;
51485;SDS011;37565;51.352;6.412;2023-02-17T23:36:05;0.85;;;0.82;;
51485;SDS011;37565;51.352;6.412;2023-02-17T23:38:36;2.05;;;0.70;;
51485;SDS011;37565;51.352;6.412;2023-02-17T23:41:04;1.13;;;0.65;;
51485;SDS011;37565;51.352;6.412;2023-02-17T23:43:32;0.93;;;0.63;;
51485;SDS011;37565;51.352;6.412;2023-02-17T23:46:00;1.13;;;0.80;;
51485;SDS011;37565;51.352;6.412;2023-02-17T23:48:28;0.85;;;0.60;;
51485;SDS011;37565;51.352;6.412;2023-02-17T23:50:56;3.80;;;0.80;;
51485;SDS011;37565;51.352;6.412;2023-02-17T23:53:25;0.95;;;0.70;;
51485;SDS011;37565;51.352;6.412;2023-02-17T23:56:02;1.90;;;0.80;;
51485;SDS011;37565;51.352;6.412;2023-02-17T23:58:32;3.40;;;0.70;;
